createdAt,value
2022-12-08T00:01:35.936Z,19.57
2022-12-08T00:04:05.339Z,16.73
2022-12-08T00:06:54.193Z,19.73
2022-12-08T00:09:24.928Z,17.10
2022-12-08T00:11:56.192Z,15.27
2022-12-08T00:14:26.218Z,16.37
2022-12-08T00:16:54.721Z,17.13
2022-12-08T00:19:23.534Z,14.97
2022-12-08T00:21:53.527Z,19.67
2022-12-08T00:24:22.567Z,18.07
2022-12-08T00:26:50.517Z,17.47
2022-12-08T00:29:19.165Z,13.73
2022-12-08T00:31:47.407Z,14.53
2022-12-08T00:34:16.053Z,14.90
2022-12-08T00:36:44.741Z,14.93
2022-12-08T00:39:15.286Z,14.17
2022-12-08T00:42:00.507Z,14.57
2022-12-08T00:44:28.766Z,14.80
2022-12-08T00:46:57.019Z,13.60
2022-12-08T00:49:25.475Z,13.30
2022-12-08T00:51:53.687Z,13.90
2022-12-08T00:54:24.063Z,16.63
2022-12-08T00:56:52.389Z,14.60
2022-12-08T00:59:20.384Z,16.40
2022-12-08T01:01:49.067Z,14.67
2022-12-08T01:04:19.320Z,14.37
2022-12-08T01:06:47.969Z,15.53
2022-12-08T01:09:17.725Z,15.40
2022-12-08T01:11:47.866Z,14.37
2022-12-08T01:14:16.177Z,14.07
2022-12-08T01:16:45.028Z,15.70
2022-12-08T01:19:15.112Z,18.30
2022-12-08T01:21:44.067Z,15.97
2022-12-08T01:24:13.250Z,19.60
2022-12-08T01:26:41.658Z,18.33
2022-12-08T01:29:12.089Z,18.77
2022-12-08T01:31:40.728Z,20.73
2022-12-08T01:34:09.224Z,20.70
2022-12-08T01:36:38.540Z,21.13
2022-12-08T01:39:08.853Z,27.30
2022-12-08T01:41:38.651Z,25.33
2022-12-08T01:44:39.827Z,29.50
2022-12-08T01:47:09.873Z,26.63
2022-12-08T01:49:38.101Z,29.70
2022-12-08T01:52:12.513Z,29.97
2022-12-08T01:54:45.061Z,28.27
2022-12-08T01:57:15.610Z,31.43
2022-12-08T01:59:49.377Z,30.80
2022-12-08T02:02:18.787Z,29.30
2022-12-08T02:04:46.732Z,34.20
2022-12-08T02:07:17.397Z,30.57
2022-12-08T02:09:46.220Z,29.83
2022-12-08T02:12:14.505Z,29.90
2022-12-08T02:14:42.472Z,31.80
2022-12-08T02:17:28.629Z,33.77
2022-12-08T02:20:17.820Z,30.10
2022-12-08T02:22:55.893Z,31.93
2022-12-08T02:25:34.715Z,35.00
2022-12-08T02:28:19.025Z,32.23
2022-12-08T02:30:55.257Z,32.33
2022-12-08T02:34:00.604Z,33.20
2022-12-08T02:36:36.659Z,32.37
2022-12-08T02:39:12.589Z,32.27
2022-12-08T02:41:46.838Z,32.07
2022-12-08T02:44:23.068Z,31.63
2022-12-08T02:46:55.547Z,32.80
2022-12-08T02:49:29.302Z,32.23
2022-12-08T02:52:07.736Z,32.27
2022-12-08T02:54:37.358Z,35.83
2022-12-08T02:57:18.279Z,32.90
2022-12-08T03:00:03.819Z,33.07
2022-12-08T03:02:46.648Z,32.53
2022-12-08T03:05:32.632Z,32.13
2022-12-08T03:08:09.811Z,31.23
2022-12-08T03:10:43.295Z,32.43
2022-12-08T03:13:14.875Z,30.27
2022-12-08T03:15:46.411Z,30.63
2022-12-08T03:18:17.808Z,30.07
2022-12-08T03:20:47.315Z,29.10
2022-12-08T03:23:18.511Z,30.20
2022-12-08T03:25:51.650Z,29.97
2022-12-08T03:28:19.571Z,28.30
2022-12-08T03:30:50.868Z,30.73
2022-12-08T03:33:24.899Z,29.00
2022-12-08T03:35:54.440Z,26.30
2022-12-08T03:38:23.968Z,30.27
2022-12-08T03:41:05.932Z,29.83
2022-12-08T03:43:34.837Z,28.40
2022-12-08T03:46:03.081Z,29.63
2022-12-08T03:48:31.120Z,29.30
2022-12-08T03:50:58.984Z,27.57
2022-12-08T03:53:28.411Z,27.77
2022-12-08T03:55:56.362Z,28.20
2022-12-08T03:58:24.293Z,29.43
2022-12-08T04:00:52.085Z,25.27
2022-12-08T04:03:20.054Z,26.67
2022-12-08T04:05:48.165Z,27.87
2022-12-08T04:08:16.238Z,25.20
2022-12-08T04:10:45.591Z,24.87
2022-12-08T04:13:13.349Z,25.80
2022-12-08T04:15:41.381Z,24.73
2022-12-08T04:18:09.266Z,26.07
2022-12-08T04:20:40.375Z,25.73
2022-12-08T04:23:08.510Z,25.30
2022-12-08T04:25:37.285Z,23.27
2022-12-08T04:28:07.192Z,22.57
2022-12-08T04:30:35.678Z,23.90
2022-12-08T04:33:04.165Z,24.30
2022-12-08T04:35:32.455Z,22.27
2022-12-08T04:38:00.411Z,23.63
2022-12-08T04:40:28.221Z,20.27
2022-12-08T04:42:56.043Z,23.30
2022-12-08T04:45:25.387Z,22.57
2022-12-08T04:47:53.381Z,20.43
2022-12-08T04:50:21.482Z,21.13
2022-12-08T04:52:49.319Z,20.30
2022-12-08T04:55:17.260Z,18.70
2022-12-08T04:57:45.137Z,18.53
2022-12-08T05:00:14.242Z,20.23
2022-12-08T05:02:43.752Z,20.77
2022-12-08T05:05:11.707Z,16.43
2022-12-08T05:07:39.761Z,21.33
2022-12-08T05:10:09.105Z,21.97
2022-12-08T05:12:37.001Z,18.87
2022-12-08T05:15:05.653Z,17.87
2022-12-08T05:17:33.488Z,19.33
2022-12-08T05:20:03.556Z,20.17
2022-12-08T05:22:31.557Z,20.87
2022-12-08T05:24:59.509Z,18.60
2022-12-08T05:27:27.764Z,18.77
2022-12-08T05:29:55.586Z,22.83
2022-12-08T05:32:23.450Z,18.80
2022-12-08T05:34:51.449Z,19.70
2022-12-08T05:37:20.783Z,19.77
2022-12-08T05:39:48.645Z,19.53
2022-12-08T05:42:21.740Z,20.73
2022-12-08T05:44:52.436Z,20.43
2022-12-08T05:47:20.369Z,19.47
2022-12-08T05:49:48.350Z,18.33
2022-12-08T05:52:17.025Z,19.03
2022-12-08T05:54:46.381Z,19.53
2022-12-08T05:57:14.229Z,20.57
2022-12-08T05:59:42.164Z,20.73
2022-12-08T06:02:10.287Z,20.23
2022-12-08T06:04:38.355Z,23.27
2022-12-08T06:07:06.336Z,20.80
2022-12-08T06:09:34.300Z,19.90
2022-12-08T06:12:03.906Z,24.07
2022-12-08T06:14:31.832Z,21.07
2022-12-08T06:16:59.931Z,21.97
2022-12-08T06:19:27.896Z,22.20
2022-12-08T06:21:55.740Z,21.60
2022-12-08T06:24:23.616Z,23.77
2022-12-08T06:26:51.505Z,22.37
2022-12-08T06:29:20.794Z,23.90
2022-12-08T06:31:48.894Z,24.10
2022-12-08T06:34:16.750Z,26.63
2022-12-08T06:36:44.598Z,24.97
2022-12-08T06:39:12.755Z,24.23
2022-12-08T06:41:54.517Z,22.87
2022-12-08T06:44:24.016Z,24.37
2022-12-08T06:46:51.828Z,23.77
2022-12-08T06:49:19.732Z,25.30
2022-12-08T06:51:47.611Z,22.70
2022-12-08T06:54:15.498Z,21.73
2022-12-08T06:56:43.354Z,22.60
2022-12-08T06:59:11.503Z,22.13
2022-12-08T07:01:40.972Z,24.77
2022-12-08T07:04:08.839Z,23.87
2022-12-08T07:06:36.896Z,22.17
2022-12-08T07:09:04.923Z,22.77
2022-12-08T07:11:32.948Z,21.87
2022-12-08T07:14:02.889Z,21.00
2022-12-08T07:16:30.887Z,23.57
2022-12-08T07:19:00.598Z,20.60
2022-12-08T07:21:28.474Z,20.57
2022-12-08T07:23:58.061Z,20.37
2022-12-08T07:26:26.836Z,21.07
2022-12-08T07:28:54.774Z,18.17
2022-12-08T07:31:25.196Z,18.63
2022-12-08T07:33:54.234Z,21.27
2022-12-08T07:36:24.336Z,17.37
2022-12-08T07:38:53.338Z,17.70
2022-12-08T07:41:23.776Z,20.67
2022-12-08T07:43:52.043Z,17.57
2022-12-08T07:46:23.006Z,15.00
2022-12-08T07:48:52.367Z,14.10
2022-12-08T07:51:20.315Z,15.20
2022-12-08T07:53:54.157Z,12.03
2022-12-08T07:56:23.217Z,13.13
2022-12-08T07:58:51.119Z,15.53
2022-12-08T08:01:25.171Z,15.37
2022-12-08T08:03:54.554Z,13.67
2022-12-08T08:06:23.063Z,14.70
2022-12-08T08:08:53.048Z,13.20
2022-12-08T08:11:22.082Z,13.77
2022-12-08T08:13:50.815Z,15.50
2022-12-08T08:16:19.962Z,15.37
2022-12-08T08:18:48.273Z,13.67
2022-12-08T08:21:43.768Z,15.27
2022-12-08T08:24:06.320Z,15.63
2022-12-08T08:26:34.178Z,15.80
2022-12-08T08:29:02.236Z,15.03
2022-12-08T08:31:30.368Z,14.80
2022-12-08T08:34:06.038Z,14.20
2022-12-08T08:36:34.711Z,14.80
2022-12-08T08:39:02.681Z,15.67
2022-12-08T08:41:32.303Z,14.53
2022-12-08T08:44:00.289Z,15.53
2022-12-08T08:46:28.325Z,15.80
2022-12-08T08:48:56.255Z,17.27
2022-12-08T08:51:24.418Z,16.43
2022-12-08T08:53:52.212Z,15.77
2022-12-08T08:56:20.561Z,17.73
2022-12-08T08:58:50.901Z,17.60
2022-12-08T09:01:21.094Z,18.63
2022-12-08T09:03:49.134Z,18.70
2022-12-08T09:06:17.346Z,22.17
2022-12-08T09:08:45.631Z,20.90
2022-12-08T09:11:14.320Z,20.80
2022-12-08T09:13:42.800Z,25.33
2022-12-08T09:16:13.149Z,15.97
2022-12-08T09:18:41.143Z,22.93
2022-12-08T09:21:11.660Z,22.77
2022-12-08T09:23:40.020Z,25.73
2022-12-08T09:26:08.284Z,23.70
2022-12-08T09:28:36.521Z,25.33
2022-12-08T09:31:05.032Z,26.10
2022-12-08T09:33:34.352Z,28.37
2022-12-08T09:36:04.176Z,25.30
2022-12-08T09:38:32.381Z,28.00
2022-12-08T09:41:02.938Z,25.87
2022-12-08T09:43:59.915Z,28.07
2022-12-08T09:46:31.800Z,25.07
2022-12-08T09:49:03.264Z,24.97
2022-12-08T09:51:37.795Z,24.93
2022-12-08T09:54:09.695Z,25.80
2022-12-08T09:56:38.836Z,27.77
2022-12-08T09:59:17.201Z,27.30
2022-12-08T10:01:45.231Z,27.30
2022-12-08T10:04:23.396Z,28.67
2022-12-08T10:07:01.484Z,24.67
2022-12-08T10:09:39.728Z,23.43
2022-12-08T10:12:17.335Z,22.33
2022-12-08T10:14:55.163Z,21.90
2022-12-08T10:17:27.029Z,20.70
2022-12-08T10:20:01.637Z,17.70
2022-12-08T10:22:39.846Z,18.33
2022-12-08T10:25:18.109Z,23.53
2022-12-08T10:27:49.276Z,19.90
2022-12-08T10:30:20.826Z,22.27
2022-12-08T10:32:51.965Z,24.00
2022-12-08T10:35:23.605Z,22.23
2022-12-08T10:37:57.676Z,20.00
2022-12-08T10:40:28.154Z,25.27
2022-12-08T10:42:58.876Z,23.93
2022-12-08T10:45:29.354Z,24.63
2022-12-08T10:48:02.892Z,28.07
2022-12-08T10:50:35.677Z,25.43
2022-12-08T10:53:13.058Z,30.03
2022-12-08T10:55:44.308Z,27.00
2022-12-08T10:58:35.606Z,25.53
2022-12-08T11:01:08.167Z,27.27
2022-12-08T11:03:39.734Z,32.53
2022-12-08T11:06:16.250Z,26.30
2022-12-08T11:08:51.584Z,27.53
2022-12-08T11:11:25.877Z,25.90
2022-12-08T11:13:57.738Z,24.70
2022-12-08T11:16:25.996Z,28.37
2022-12-08T11:18:58.986Z,28.73
2022-12-08T11:21:37.196Z,27.93
2022-12-08T11:24:23.582Z,30.83
2022-12-08T11:26:55.468Z,25.93
2022-12-08T11:29:23.439Z,27.73
2022-12-08T11:31:55.754Z,29.77
2022-12-08T11:34:33.220Z,26.13
2022-12-08T11:37:04.931Z,29.40
2022-12-08T11:39:36.375Z,25.47
2022-12-08T11:42:08.239Z,24.73
2022-12-08T11:44:42.894Z,27.10
2022-12-08T11:47:19.006Z,28.03
2022-12-08T11:49:50.478Z,24.10
2022-12-08T11:52:27.631Z,26.47
2022-12-08T11:55:00.974Z,23.47
2022-12-08T11:57:30.877Z,25.80
2022-12-08T11:59:59.871Z,23.37
2022-12-08T12:02:30.090Z,22.80
2022-12-08T12:05:03.520Z,21.73
2022-12-08T12:07:52.638Z,21.67
2022-12-08T12:10:37.511Z,23.60
2022-12-08T12:13:14.295Z,21.93
2022-12-08T12:16:16.467Z,23.40
2022-12-08T12:18:47.084Z,20.27
2022-12-08T12:21:20.374Z,23.67
2022-12-08T12:23:55.299Z,21.47
2022-12-08T12:26:26.382Z,16.47
2022-12-08T12:28:59.066Z,16.47
2022-12-08T12:31:31.001Z,16.90
2022-12-08T12:34:13.287Z,15.30
2022-12-08T12:36:53.871Z,17.00
2022-12-08T12:39:29.400Z,17.10
2022-12-08T12:41:59.614Z,16.80
2022-12-08T12:44:43.144Z,16.90
2022-12-08T12:47:35.407Z,15.40
2022-12-08T12:50:09.035Z,16.23
2022-12-08T12:52:47.133Z,16.23
2022-12-08T12:55:52.103Z,15.10
2022-12-08T12:58:41.063Z,16.10
2022-12-08T13:01:46.280Z,16.63
2022-12-08T13:04:14.448Z,14.40
2022-12-08T13:06:45.454Z,14.83
2022-12-08T13:09:23.029Z,16.37
2022-12-08T13:11:55.705Z,16.73
2022-12-08T13:14:32.701Z,18.07
2022-12-08T13:17:02.952Z,17.53
2022-12-08T13:19:34.098Z,18.00
2022-12-08T13:22:02.580Z,17.97
2022-12-08T13:24:35.038Z,24.20
2022-12-08T13:27:35.565Z,21.17
2022-12-08T13:30:50.086Z,17.57
2022-12-08T13:33:24.472Z,19.03
2022-12-08T13:36:06.368Z,19.97
2022-12-08T13:38:37.802Z,21.50
2022-12-08T13:41:13.879Z,19.97
2022-12-08T13:44:10.603Z,20.67
2022-12-08T13:56:51.420Z,22.83
2022-12-08T13:58:21.186Z,21.80
2022-12-08T14:01:03.564Z,18.80
2022-12-08T14:03:32.101Z,20.73
2022-12-08T14:06:15.789Z,17.13
2022-12-08T14:09:06.919Z,20.37
2022-12-08T14:11:37.610Z,20.77
2022-12-08T14:14:08.678Z,15.63
2022-12-08T14:16:40.923Z,14.07
2022-12-08T14:19:18.892Z,22.27
2022-12-08T14:21:54.908Z,14.80
2022-12-08T14:24:23.841Z,16.50
2022-12-08T14:26:54.392Z,15.27
2022-12-08T14:29:40.868Z,15.43
2022-12-08T14:32:22.570Z,15.03
2022-12-08T14:34:59.988Z,12.73
2022-12-08T14:37:31.082Z,11.73
2022-12-08T14:40:02.559Z,15.77
2022-12-08T14:42:31.397Z,13.83
2022-12-08T14:45:02.275Z,15.30
2022-12-08T14:47:33.364Z,16.30
2022-12-08T14:50:02.517Z,15.83
2022-12-08T14:52:31.463Z,16.80
2022-12-08T14:55:00.156Z,16.23
2022-12-08T14:57:36.425Z,15.80
2022-12-08T15:00:12.386Z,12.87
2022-12-08T15:02:47.396Z,13.33
2022-12-08T15:05:18.026Z,15.53
2022-12-08T15:07:49.566Z,19.77
2022-12-08T15:10:26.465Z,18.10
2022-12-08T15:12:59.547Z,19.77
2022-12-08T15:15:27.822Z,19.03
2022-12-08T15:18:05.450Z,17.90
2022-12-08T15:20:41.522Z,17.60
2022-12-08T15:23:21.434Z,19.67
2022-12-08T15:25:49.919Z,19.40
2022-12-08T15:28:21.261Z,19.70
2022-12-08T15:30:51.778Z,18.40
2022-12-08T15:33:21.352Z,23.17
2022-12-08T15:35:50.497Z,19.27
2022-12-08T15:38:21.629Z,20.00
2022-12-08T15:40:49.702Z,20.27
2022-12-08T15:43:17.508Z,20.50
2022-12-08T15:45:58.012Z,23.90
2022-12-08T15:48:31.113Z,19.00
2022-12-08T15:50:59.822Z,20.50
2022-12-08T15:53:27.953Z,19.43
2022-12-08T15:58:59.573Z,27.37
2022-12-08T16:01:28.254Z,23.63
2022-12-08T16:09:39.395Z,20.77
2022-12-08T16:12:57.175Z,21.20
2022-12-08T16:15:50.035Z,21.20
2022-12-08T16:18:15.097Z,25.60
2022-12-08T16:21:07.492Z,25.53
2022-12-08T16:23:48.231Z,23.87
2022-12-08T16:29:07.870Z,21.87
2022-12-08T16:31:35.991Z,43.60
2022-12-08T16:34:03.857Z,26.70
2022-12-08T16:36:33.296Z,23.43
2022-12-08T16:39:01.193Z,21.90
2022-12-08T16:41:46.791Z,25.53
2022-12-08T16:44:14.660Z,22.83
2022-12-08T16:46:42.861Z,22.13
2022-12-08T16:49:11.050Z,23.03
2022-12-08T16:51:43.284Z,24.30
2022-12-08T16:54:11.252Z,24.40
2022-12-08T16:56:39.159Z,27.70
2022-12-08T16:59:07.113Z,20.60
2022-12-08T17:01:35.861Z,23.03
2022-12-08T17:06:53.260Z,24.37
2022-12-08T17:09:21.542Z,21.43
2022-12-08T17:11:49.429Z,19.93
2022-12-08T17:14:17.453Z,23.93
2022-12-08T17:16:46.714Z,24.70
2022-12-08T17:19:15.821Z,27.03
2022-12-08T17:21:44.495Z,21.23
2022-12-08T17:24:18.590Z,23.67
2022-12-08T17:26:49.897Z,24.33
2022-12-08T17:29:18.751Z,25.63
2022-12-08T17:31:46.891Z,22.37
2022-12-08T17:34:15.136Z,21.87
2022-12-08T17:36:43.282Z,23.40
2022-12-08T17:39:18.383Z,20.93
2022-12-08T17:41:47.226Z,25.83
2022-12-08T17:44:17.040Z,24.63
2022-12-08T17:46:52.184Z,23.10
2022-12-08T17:49:22.703Z,24.83
2022-12-08T17:51:53.078Z,24.67
2022-12-08T17:54:22.506Z,28.70
2022-12-08T17:56:50.476Z,23.90
2022-12-08T17:59:19.576Z,24.47
2022-12-08T18:01:47.748Z,22.43
2022-12-08T18:04:16.643Z,24.03
2022-12-08T18:06:44.882Z,26.13
2022-12-08T18:09:12.997Z,30.10
2022-12-08T18:11:43.045Z,26.67
2022-12-08T18:14:12.436Z,26.73
2022-12-08T18:16:42.115Z,25.77
2022-12-08T18:19:11.014Z,30.77
2022-12-08T18:21:39.313Z,25.80
2022-12-08T18:24:08.178Z,31.47
2022-12-08T18:26:36.653Z,26.27
2022-12-08T18:29:05.955Z,25.27
2022-12-08T18:31:34.229Z,24.07
2022-12-08T18:34:02.120Z,24.93
2022-12-08T18:36:30.004Z,25.33
2022-12-08T18:38:57.920Z,22.80
2022-12-08T18:41:26.881Z,26.63
2022-12-08T18:43:55.559Z,25.93
2022-12-08T18:46:25.869Z,26.57
2022-12-08T18:48:54.263Z,23.13
2022-12-08T18:51:24.259Z,23.57
2022-12-08T18:53:53.703Z,23.00
2022-12-08T18:56:24.659Z,23.73
2022-12-08T18:58:52.607Z,32.40
2022-12-08T19:01:20.636Z,22.70
2022-12-08T19:04:19.984Z,25.83
2022-12-08T19:06:40.020Z,23.43
2022-12-08T19:09:08.827Z,22.40
2022-12-08T19:11:36.886Z,23.70
2022-12-08T19:14:05.615Z,23.53
2022-12-08T19:16:33.690Z,23.30
2022-12-08T19:19:03.432Z,23.20
2022-12-08T19:21:31.641Z,22.93
2022-12-08T19:24:00.084Z,21.90
2022-12-08T19:26:29.383Z,23.40
2022-12-08T19:28:58.658Z,24.73
2022-12-08T19:31:27.184Z,22.83
2022-12-08T19:33:58.072Z,24.03
2022-12-08T19:36:27.850Z,22.87
2022-12-08T19:39:13.061Z,22.33
2022-12-08T19:42:00.982Z,24.73
2022-12-08T19:44:47.860Z,28.00
2022-12-08T19:47:16.214Z,23.57
2022-12-08T19:49:44.217Z,21.50
2022-12-08T19:52:13.716Z,24.57
2022-12-08T19:54:41.668Z,21.17
2022-12-08T19:57:10.688Z,24.47
2022-12-08T19:59:39.282Z,21.37
2022-12-08T20:02:07.742Z,25.43
2022-12-08T20:04:35.876Z,23.03
2022-12-08T20:07:04.392Z,21.57
2022-12-08T20:09:33.678Z,20.07
2022-12-08T20:12:01.610Z,24.93
2022-12-08T20:14:29.515Z,23.67
2022-12-08T20:16:57.507Z,21.97
2022-12-08T20:19:25.512Z,24.93
2022-12-08T20:21:53.435Z,23.50
2022-12-08T20:24:21.866Z,24.10
2022-12-08T20:26:51.460Z,20.47
2022-12-08T20:29:19.385Z,21.23
2022-12-08T20:31:47.462Z,21.70
2022-12-08T20:34:16.593Z,20.83
2022-12-08T20:36:44.822Z,23.63
2022-12-08T20:39:14.565Z,21.97
2022-12-08T20:41:42.557Z,24.23
2022-12-08T20:44:12.237Z,22.20
2022-12-08T20:46:44.981Z,26.57
2022-12-08T20:49:15.854Z,21.63
2022-12-08T20:51:44.469Z,22.27
2022-12-08T20:54:12.572Z,23.87
2022-12-08T20:56:47.921Z,21.03
2022-12-08T20:59:18.649Z,22.63
2022-12-08T21:01:46.844Z,18.43
2022-12-08T21:04:15.025Z,23.30
2022-12-08T21:06:43.192Z,20.10
2022-12-08T21:09:11.393Z,23.30
2022-12-08T21:11:39.589Z,21.63
2022-12-08T21:14:08.007Z,22.07
2022-12-08T21:16:37.494Z,23.13
2022-12-08T21:19:06.145Z,23.70
2022-12-08T21:21:34.608Z,22.20
2022-12-08T21:24:03.874Z,21.93
2022-12-08T21:26:32.445Z,23.13
2022-12-08T21:29:00.394Z,21.93
2022-12-08T21:31:31.590Z,22.27
2022-12-08T21:34:02.534Z,22.53
2022-12-08T21:36:31.079Z,23.33
2022-12-08T21:39:00.716Z,22.27
2022-12-08T21:41:47.704Z,21.03
2022-12-08T21:44:18.737Z,20.17
2022-12-08T21:46:46.903Z,20.67
2022-12-08T21:49:16.433Z,22.80
2022-12-08T21:51:44.729Z,21.73
2022-12-08T21:54:18.215Z,21.33
2022-12-08T21:56:47.716Z,21.60
2022-12-08T21:59:16.403Z,21.47
2022-12-08T22:01:45.173Z,22.73
2022-12-08T22:04:13.727Z,21.23
2022-12-08T22:06:43.928Z,19.40
2022-12-08T22:09:13.538Z,22.83
2022-12-08T22:11:42.134Z,26.07
2022-12-08T22:14:14.385Z,23.40
2022-12-08T22:16:43.447Z,24.83
2022-12-08T22:19:12.490Z,21.47
2022-12-08T22:21:42.061Z,26.83
2022-12-08T22:24:10.703Z,25.87
2022-12-08T22:26:38.653Z,26.67
2022-12-08T22:29:06.794Z,28.60
2022-12-08T22:31:34.934Z,23.37
2022-12-08T22:34:02.924Z,22.63
2022-12-08T22:36:30.971Z,26.07
2022-12-08T22:39:00.357Z,23.67
2022-12-08T22:41:28.484Z,26.83
2022-12-08T22:43:56.460Z,21.87
2022-12-08T22:46:25.772Z,24.90
2022-12-08T22:48:55.389Z,23.17
2022-12-08T22:51:23.398Z,22.40
2022-12-08T22:53:51.986Z,25.17
2022-12-08T22:56:21.540Z,23.80
2022-12-08T22:58:49.891Z,22.90
2022-12-08T23:01:24.552Z,23.30
2022-12-08T23:03:52.779Z,23.40
2022-12-08T23:06:21.096Z,23.53
2022-12-08T23:08:49.326Z,26.53
2022-12-08T23:11:17.742Z,26.23
2022-12-08T23:13:47.326Z,24.83
2022-12-08T23:16:15.259Z,27.33
2022-12-08T23:18:44.553Z,25.13
2022-12-08T23:21:15.184Z,23.87
2022-12-08T23:23:43.822Z,28.83
2022-12-08T23:26:17.979Z,22.50
2022-12-08T23:28:47.820Z,24.63
2022-12-08T23:31:16.432Z,24.50
2022-12-08T23:33:44.873Z,24.53
2022-12-08T23:36:13.749Z,25.90
2022-12-08T23:38:42.088Z,22.13
2022-12-08T23:41:13.578Z,22.37
2022-12-08T23:43:45.537Z,25.70
2022-12-08T23:46:16.391Z,24.30
2022-12-08T23:48:44.679Z,23.63
2022-12-08T23:51:13.385Z,24.57
2022-12-08T23:53:41.567Z,23.17
2022-12-08T23:56:11.216Z,24.43
2022-12-08T23:58:40.221Z,21.80
